sensor_id;sensor_type;location;lat;lon;timestamp;temperature;humidity
28087;DHT22;15392;48.912;8.380;2023-04-01T00:00:19;16.10;48.50
28087;DHT22;15392;48.912;8.380;2023-04-01T00:02:46;16.10;48.50
28087;DHT22;15392;48.912;8.380;2023-04-01T00:05:12;16.10;48.50
28087;DHT22;15392;48.912;8.380;2023-04-01T00:07:39;16.10;48.50
28087;DHT22;15392;48.912;8.380;2023-04-01T00:10:10;16.10;48.50
28087;DHT22;15392;48.912;8.380;2023-04-01T00:12:38;16.10;48.60
28087;DHT22;15392;48.912;8.380;2023-04-01T00:15:08;16.10;48.50
28087;DHT22;15392;48.912;8.380;2023-04-01T00:17:35;16.10;48.60
28087;DHT22;15392;48.912;8.380;2023-04-01T00:20:02;16.10;48.60
28087;DHT22;15392;48.912;8.380;2023-04-01T00:22:28;16.10;48.70
28087;DHT22;15392;48.912;8.380;2023-04-01T00:24:54;16.10;48.60
28087;DHT22;15392;48.912;8.380;2023-04-01T00:27:20;16.10;48.60
28087;DHT22;15392;48.912;8.380;2023-04-01T00:29:46;16.10;48.70
28087;DHT22;15392;48.912;8.380;2023-04-01T00:32:13;16.10;48.70
28087;DHT22;15392;48.912;8.380;2023-04-01T00:34:40;16.10;48.70
28087;DHT22;15392;48.912;8.380;2023-04-01T00:37:07;16.10;48.70
28087;DHT22;15392;48.912;8.380;2023-04-01T00:39:34;16.10;48.70
28087;DHT22;15392;48.912;8.380;2023-04-01T00:42:02;16.10;48.70
28087;DHT22;15392;48.912;8.380;2023-04-01T00:44:31;16.10;48.70
28087;DHT22;15392;48.912;8.380;2023-04-01T00:46:59;16.00;48.70
28087;DHT22;15392;48.912;8.380;2023-04-01T00:49:35;16.10;48.80
28087;DHT22;15392;48.912;8.380;2023-04-01T00:52:04;16.00;48.80
28087;DHT22;15392;48.912;8.380;2023-04-01T00:54:34;16.10;48.80
28087;DHT22;15392;48.912;8.380;2023-04-01T00:57:13;16.00;48.80
28087;DHT22;15392;48.912;8.380;2023-04-01T00:59:47;16.00;48.90
28087;DHT22;15392;48.912;8.380;2023-04-01T01:02:15;16.10;48.90
28087;DHT22;15392;48.912;8.380;2023-04-01T01:04:42;16.00;48.80
28087;DHT22;15392;48.912;8.380;2023-04-01T01:18:35;16.00;48.80
28087;DHT22;15392;48.912;8.380;2023-04-01T01:27:02;16.00;48.90
28087;DHT22;15392;48.912;8.380;2023-04-01T01:33:00;15.90;48.90
28087;DHT22;15392;48.912;8.380;2023-04-01T01:35:40;15.90;48.70
28087;DHT22;15392;48.912;8.380;2023-04-01T01:38:18;15.90;48.80
28087;DHT22;15392;48.912;8.380;2023-04-01T01:40:50;15.90;48.70
28087;DHT22;15392;48.912;8.380;2023-04-01T01:43:23;15.90;48.70
28087;DHT22;15392;48.912;8.380;2023-04-01T01:45:56;15.90;48.70
28087;DHT22;15392;48.912;8.380;2023-04-01T01:48:24;15.90;48.70
28087;DHT22;15392;48.912;8.380;2023-04-01T01:50:52;15.90;48.60
28087;DHT22;15392;48.912;8.380;2023-04-01T01:53:18;15.90;48.70
28087;DHT22;15392;48.912;8.380;2023-04-01T01:55:46;15.90;48.70
28087;DHT22;15392;48.912;8.380;2023-04-01T01:58:25;15.90;48.80
28087;DHT22;15392;48.912;8.380;2023-04-01T02:00:57;15.90;48.80
28087;DHT22;15392;48.912;8.380;2023-04-01T02:03:29;15.90;48.70
28087;DHT22;15392;48.912;8.380;2023-04-01T02:05:59;15.90;48.70
28087;DHT22;15392;48.912;8.380;2023-04-01T02:08:57;15.90;48.70
28087;DHT22;15392;48.912;8.380;2023-04-01T02:14:07;15.80;48.40
28087;DHT22;15392;48.912;8.380;2023-04-01T02:16:49;15.80;48.40
28087;DHT22;15392;48.912;8.380;2023-04-01T02:19:22;15.80;48.40
28087;DHT22;15392;48.912;8.380;2023-04-01T02:21:54;15.80;48.40
28087;DHT22;15392;48.912;8.380;2023-04-01T02:24:25;15.80;48.40
28087;DHT22;15392;48.912;8.380;2023-04-01T02:26:52;15.70;48.40
28087;DHT22;15392;48.912;8.380;2023-04-01T02:29:21;15.70;48.30
28087;DHT22;15392;48.912;8.380;2023-04-01T02:31:50;15.70;48.30
28087;DHT22;15392;48.912;8.380;2023-04-01T02:34:16;15.70;48.40
28087;DHT22;15392;48.912;8.380;2023-04-01T02:36:42;15.70;48.30
28087;DHT22;15392;48.912;8.380;2023-04-01T02:39:08;15.70;48.30
28087;DHT22;15392;48.912;8.380;2023-04-01T02:41:42;15.70;48.30
28087;DHT22;15392;48.912;8.380;2023-04-01T02:44:11;15.70;48.20
28087;DHT22;15392;48.912;8.380;2023-04-01T02:46:38;15.70;48.20
28087;DHT22;15392;48.912;8.380;2023-04-01T02:49:04;15.70;48.20
28087;DHT22;15392;48.912;8.380;2023-04-01T02:51:30;15.70;48.20
28087;DHT22;15392;48.912;8.380;2023-04-01T02:53:56;15.70;48.20
28087;DHT22;15392;48.912;8.380;2023-04-01T02:56:22;15.70;48.30
28087;DHT22;15392;48.912;8.380;2023-04-01T02:58:48;15.70;48.40
28087;DHT22;15392;48.912;8.380;2023-04-01T03:01:14;15.70;48.50
28087;DHT22;15392;48.912;8.380;2023-04-01T03:03:40;15.70;48.50
28087;DHT22;15392;48.912;8.380;2023-04-01T03:06:11;15.70;48.40
28087;DHT22;15392;48.912;8.380;2023-04-01T03:08:39;15.60;48.30
28087;DHT22;15392;48.912;8.380;2023-04-01T03:11:04;15.60;48.30
28087;DHT22;15392;48.912;8.380;2023-04-01T03:13:31;15.60;48.30
28087;DHT22;15392;48.912;8.380;2023-04-01T03:15:57;15.60;48.30
28087;DHT22;15392;48.912;8.380;2023-04-01T03:18:23;15.60;48.20
28087;DHT22;15392;48.912;8.380;2023-04-01T03:20:49;15.60;48.20
28087;DHT22;15392;48.912;8.380;2023-04-01T03:23:15;15.60;48.10
28087;DHT22;15392;48.912;8.380;2023-04-01T03:25:42;15.60;48.10
28087;DHT22;15392;48.912;8.380;2023-04-01T03:28:08;15.60;48.10
28087;DHT22;15392;48.912;8.380;2023-04-01T03:30:34;15.60;48.10
28087;DHT22;15392;48.912;8.380;2023-04-01T03:33:00;15.60;48.10
28087;DHT22;15392;48.912;8.380;2023-04-01T03:35:26;15.60;48.10
28087;DHT22;15392;48.912;8.380;2023-04-01T03:37:53;15.60;48.10
28087;DHT22;15392;48.912;8.380;2023-04-01T03:40:20;15.60;48.10
28087;DHT22;15392;48.912;8.380;2023-04-01T03:42:46;15.70;48.10
28087;DHT22;15392;48.912;8.380;2023-04-01T03:45:12;15.60;48.10
28087;DHT22;15392;48.912;8.380;2023-04-01T03:47:39;15.60;48.10
28087;DHT22;15392;48.912;8.380;2023-04-01T03:50:06;15.60;48.10
28087;DHT22;15392;48.912;8.380;2023-04-01T03:52:33;15.60;48.10
28087;DHT22;15392;48.912;8.380;2023-04-01T03:54:59;15.60;48.10
28087;DHT22;15392;48.912;8.380;2023-04-01T03:57:25;15.70;48.10
28087;DHT22;15392;48.912;8.380;2023-04-01T03:59:51;15.70;48.10
28087;DHT22;15392;48.912;8.380;2023-04-01T04:02:17;15.60;48.10
28087;DHT22;15392;48.912;8.380;2023-04-01T04:04:43;15.60;48.10
28087;DHT22;15392;48.912;8.380;2023-04-01T04:07:09;15.60;48.10
28087;DHT22;15392;48.912;8.380;2023-04-01T04:09:34;15.70;48.20
28087;DHT22;15392;48.912;8.380;2023-04-01T04:12:00;15.70;48.20
28087;DHT22;15392;48.912;8.380;2023-04-01T04:14:26;15.70;48.20
28087;DHT22;15392;48.912;8.380;2023-04-01T04:16:52;15.70;48.20
28087;DHT22;15392;48.912;8.380;2023-04-01T04:19:18;15.70;48.20
28087;DHT22;15392;48.912;8.380;2023-04-01T04:21:44;15.70;48.10
28087;DHT22;15392;48.912;8.380;2023-04-01T04:24:09;15.70;48.10
28087;DHT22;15392;48.912;8.380;2023-04-01T04:26:35;15.70;48.10
28087;DHT22;15392;48.912;8.380;2023-04-01T04:29:02;15.70;48.10
28087;DHT22;15392;48.912;8.380;2023-04-01T04:31:28;15.70;48.10
28087;DHT22;15392;48.912;8.380;2023-04-01T04:33:53;15.70;48.10
28087;DHT22;15392;48.912;8.380;2023-04-01T04:36:20;15.70;48.00
28087;DHT22;15392;48.912;8.380;2023-04-01T04:38:47;15.70;48.00
28087;DHT22;15392;48.912;8.380;2023-04-01T04:41:14;15.80;48.00
28087;DHT22;15392;48.912;8.380;2023-04-01T04:43:49;15.70;48.00
28087;DHT22;15392;48.912;8.380;2023-04-01T04:46:20;15.80;48.00
28087;DHT22;15392;48.912;8.380;2023-04-01T04:48:46;15.80;48.00
28087;DHT22;15392;48.912;8.380;2023-04-01T04:51:16;15.80;48.00
28087;DHT22;15392;48.912;8.380;2023-04-01T04:53:44;15.80;48.00
28087;DHT22;15392;48.912;8.380;2023-04-01T04:56:10;15.80;48.00
28087;DHT22;15392;48.912;8.380;2023-04-01T04:58:38;15.80;48.00
28087;DHT22;15392;48.912;8.380;2023-04-01T05:01:09;15.80;47.90
28087;DHT22;15392;48.912;8.380;2023-04-01T05:03:37;15.80;48.50
28087;DHT22;15392;48.912;8.380;2023-04-01T05:06:04;15.80;48.00
28087;DHT22;15392;48.912;8.380;2023-04-01T05:08:30;15.80;47.80
28087;DHT22;15392;48.912;8.380;2023-04-01T05:10:56;15.80;47.80
28087;DHT22;15392;48.912;8.380;2023-04-01T05:13:21;15.80;47.80
28087;DHT22;15392;48.912;8.380;2023-04-01T05:15:47;15.80;47.80
28087;DHT22;15392;48.912;8.380;2023-04-01T05:18:13;15.80;47.80
28087;DHT22;15392;48.912;8.380;2023-04-01T05:20:39;15.80;47.80
28087;DHT22;15392;48.912;8.380;2023-04-01T05:23:04;15.80;47.80
28087;DHT22;15392;48.912;8.380;2023-04-01T05:25:30;15.80;47.80
28087;DHT22;15392;48.912;8.380;2023-04-01T05:27:56;15.80;47.90
28087;DHT22;15392;48.912;8.380;2023-04-01T05:30:21;15.80;47.90
28087;DHT22;15392;48.912;8.380;2023-04-01T05:32:47;15.80;48.00
28087;DHT22;15392;48.912;8.380;2023-04-01T05:35:13;15.80;47.90
28087;DHT22;15392;48.912;8.380;2023-04-01T05:37:38;15.80;47.80
28087;DHT22;15392;48.912;8.380;2023-04-01T05:40:05;15.80;47.90
28087;DHT22;15392;48.912;8.380;2023-04-01T05:42:31;15.80;48.00
28087;DHT22;15392;48.912;8.380;2023-04-01T05:44:57;15.80;48.10
28087;DHT22;15392;48.912;8.380;2023-04-01T05:47:23;15.80;48.20
28087;DHT22;15392;48.912;8.380;2023-04-01T05:49:48;15.80;48.20
28087;DHT22;15392;48.912;8.380;2023-04-01T05:52:14;15.70;48.30
28087;DHT22;15392;48.912;8.380;2023-04-01T05:54:41;15.70;48.30
28087;DHT22;15392;48.912;8.380;2023-04-01T05:57:07;15.70;48.30
28087;DHT22;15392;48.912;8.380;2023-04-01T05:59:32;15.70;48.40
28087;DHT22;15392;48.912;8.380;2023-04-01T06:02:00;15.60;48.50
28087;DHT22;15392;48.912;8.380;2023-04-01T06:04:31;15.60;48.50
28087;DHT22;15392;48.912;8.380;2023-04-01T06:07:00;15.60;48.80
28087;DHT22;15392;48.912;8.380;2023-04-01T06:09:27;15.60;48.90
28087;DHT22;15392;48.912;8.380;2023-04-01T06:18:31;15.50;49.50
28087;DHT22;15392;48.912;8.380;2023-04-01T06:27:07;15.40;49.70
28087;DHT22;15392;48.912;8.380;2023-04-01T06:44:33;15.20;50.00
28087;DHT22;15392;48.912;8.380;2023-04-01T06:50:33;15.10;50.20
28087;DHT22;15392;48.912;8.380;2023-04-01T06:56:03;15.10;50.10
28087;DHT22;15392;48.912;8.380;2023-04-01T06:58:44;15.10;50.40
28087;DHT22;15392;48.912;8.380;2023-04-01T07:01:44;15.10;50.60
28087;DHT22;15392;48.912;8.380;2023-04-01T07:04:15;15.10;50.70
28087;DHT22;15392;48.912;8.380;2023-04-01T07:06:58;15.10;50.60
28087;DHT22;15392;48.912;8.380;2023-04-01T07:09:33;15.00;50.40
28087;DHT22;15392;48.912;8.380;2023-04-01T07:12:06;15.00;50.70
28087;DHT22;15392;48.912;8.380;2023-04-01T07:14:39;15.00;50.70
28087;DHT22;15392;48.912;8.380;2023-04-01T07:17:23;15.00;50.70
28087;DHT22;15392;48.912;8.380;2023-04-01T07:20:16;15.10;51.10
28087;DHT22;15392;48.912;8.380;2023-04-01T07:22:49;15.10;51.30
28087;DHT22;15392;48.912;8.380;2023-04-01T07:28:17;15.10;51.00
28087;DHT22;15392;48.912;8.380;2023-04-01T07:30:56;15.00;50.90
28087;DHT22;15392;48.912;8.380;2023-04-01T07:45:31;15.10;51.50
28087;DHT22;15392;48.912;8.380;2023-04-01T07:53:37;15.00;51.80
28087;DHT22;15392;48.912;8.380;2023-04-01T07:56:19;15.00;51.50
28087;DHT22;15392;48.912;8.380;2023-04-01T08:01:52;15.00;51.50
28087;DHT22;15392;48.912;8.380;2023-04-01T08:07:36;14.90;51.90
28087;DHT22;15392;48.912;8.380;2023-04-01T08:13:40;14.90;52.10
28087;DHT22;15392;48.912;8.380;2023-04-01T08:22:51;14.80;52.00
28087;DHT22;15392;48.912;8.380;2023-04-01T08:25:28;14.80;51.70
28087;DHT22;15392;48.912;8.380;2023-04-01T08:28:29;14.80;52.00
28087;DHT22;15392;48.912;8.380;2023-04-01T08:31:12;14.90;53.00
28087;DHT22;15392;48.912;8.380;2023-04-01T08:33:44;14.80;52.40
28087;DHT22;15392;48.912;8.380;2023-04-01T08:38:49;14.90;52.20
28087;DHT22;15392;48.912;8.380;2023-04-01T08:57:08;14.90;52.10
28087;DHT22;15392;48.912;8.380;2023-04-01T09:05:43;15.00;52.40
28087;DHT22;15392;48.912;8.380;2023-04-01T09:18:12;15.00;52.90
28087;DHT22;15392;48.912;8.380;2023-04-01T09:21:22;15.00;52.90
28087;DHT22;15392;48.912;8.380;2023-04-01T09:36:18;15.00;53.00
28087;DHT22;15392;48.912;8.380;2023-04-01T09:38:55;15.00;52.80
28087;DHT22;15392;48.912;8.380;2023-04-01T09:41:30;15.00;52.20
28087;DHT22;15392;48.912;8.380;2023-04-01T09:47:01;15.00;52.60
28087;DHT22;15392;48.912;8.380;2023-04-01T09:52:43;15.10;52.50
28087;DHT22;15392;48.912;8.380;2023-04-01T10:31:42;15.20;53.00
28087;DHT22;15392;48.912;8.380;2023-04-01T10:40:38;15.20;52.70
28087;DHT22;15392;48.912;8.380;2023-04-01T10:43:37;15.20;52.60
28087;DHT22;15392;48.912;8.380;2023-04-01T10:47:12;15.30;52.40
28087;DHT22;15392;48.912;8.380;2023-04-01T10:55:23;15.30;52.00
28087;DHT22;15392;48.912;8.380;2023-04-01T11:13:24;15.40;52.80
28087;DHT22;15392;48.912;8.380;2023-04-01T11:16:18;15.40;52.40
28087;DHT22;15392;48.912;8.380;2023-04-01T11:40:05;15.30;53.10
28087;DHT22;15392;48.912;8.380;2023-04-01T11:42:58;15.40;53.40
28087;DHT22;15392;48.912;8.380;2023-04-01T11:45:37;15.40;52.50
28087;DHT22;15392;48.912;8.380;2023-04-01T11:48:17;15.40;53.00
28087;DHT22;15392;48.912;8.380;2023-04-01T12:00:57;15.40;52.60
28087;DHT22;15392;48.912;8.380;2023-04-01T12:03:53;15.40;52.90
28087;DHT22;15392;48.912;8.380;2023-04-01T12:06:51;15.40;52.70
28087;DHT22;15392;48.912;8.380;2023-04-01T12:09:47;15.40;52.70
28087;DHT22;15392;48.912;8.380;2023-04-01T12:15:22;15.50;52.90
28087;DHT22;15392;48.912;8.380;2023-04-01T12:25:19;15.40;52.80
28087;DHT22;15392;48.912;8.380;2023-04-01T12:28:21;15.50;52.60
28087;DHT22;15392;48.912;8.380;2023-04-01T12:31:17;15.50;52.70
28087;DHT22;15392;48.912;8.380;2023-04-01T12:37:18;15.40;52.40
28087;DHT22;15392;48.912;8.380;2023-04-01T12:51:57;15.40;52.30
28087;DHT22;15392;48.912;8.380;2023-04-01T12:54:34;15.40;51.90
28087;DHT22;15392;48.912;8.380;2023-04-01T13:02:51;15.40;52.00
28087;DHT22;15392;48.912;8.380;2023-04-01T13:14:15;15.40;52.80
28087;DHT22;15392;48.912;8.380;2023-04-01T13:22:54;15.40;52.70
28087;DHT22;15392;48.912;8.380;2023-04-01T13:28:20;15.30;52.80
28087;DHT22;15392;48.912;8.380;2023-04-01T13:34:17;15.30;53.10
28087;DHT22;15392;48.912;8.380;2023-04-01T13:42:54;15.30;53.70
28087;DHT22;15392;48.912;8.380;2023-04-01T13:49:22;15.20;53.10
28087;DHT22;15392;48.912;8.380;2023-04-01T13:52:26;15.20;53.40
28087;DHT22;15392;48.912;8.380;2023-04-01T13:55:22;15.20;53.50
28087;DHT22;15392;48.912;8.380;2023-04-01T13:58:20;15.20;53.20
28087;DHT22;15392;48.912;8.380;2023-04-01T14:01:06;15.20;53.40
28087;DHT22;15392;48.912;8.380;2023-04-01T14:04:06;15.30;53.00
28087;DHT22;15392;48.912;8.380;2023-04-01T14:07:01;15.20;53.60
28087;DHT22;15392;48.912;8.380;2023-04-01T14:13:12;15.30;53.40
28087;DHT22;15392;48.912;8.380;2023-04-01T14:16:02;15.30;53.30
28087;DHT22;15392;48.912;8.380;2023-04-01T14:18:52;15.30;53.30
28087;DHT22;15392;48.912;8.380;2023-04-01T14:21:43;15.30;53.50
28087;DHT22;15392;48.912;8.380;2023-04-01T14:38:59;15.30;52.90
28087;DHT22;15392;48.912;8.380;2023-04-01T14:50:40;15.30;53.00
28087;DHT22;15392;48.912;8.380;2023-04-01T14:58:12;15.30;53.40
28087;DHT22;15392;48.912;8.380;2023-04-01T15:00:50;15.30;53.20
28087;DHT22;15392;48.912;8.380;2023-04-01T15:24:26;15.40;52.90
28087;DHT22;15392;48.912;8.380;2023-04-01T15:30:21;15.50;53.50
28087;DHT22;15392;48.912;8.380;2023-04-01T15:33:29;15.40;53.20
28087;DHT22;15392;48.912;8.380;2023-04-01T15:49:57;15.50;53.00
28087;DHT22;15392;48.912;8.380;2023-04-01T15:52:49;15.50;53.00
28087;DHT22;15392;48.912;8.380;2023-04-01T16:04:48;15.50;53.10
28087;DHT22;15392;48.912;8.380;2023-04-01T16:07:43;15.50;52.60
28087;DHT22;15392;48.912;8.380;2023-04-01T16:20:12;15.60;53.00
28087;DHT22;15392;48.912;8.380;2023-04-01T16:22:57;15.60;53.30
28087;DHT22;15392;48.912;8.380;2023-04-01T16:25:44;15.60;53.20
28087;DHT22;15392;48.912;8.380;2023-04-01T16:28:23;15.60;52.70
28087;DHT22;15392;48.912;8.380;2023-04-01T16:34:08;15.70;53.10
28087;DHT22;15392;48.912;8.380;2023-04-01T16:39:37;15.70;52.90
28087;DHT22;15392;48.912;8.380;2023-04-01T16:42:30;15.70;52.70
28087;DHT22;15392;48.912;8.380;2023-04-01T16:50:59;15.80;53.10
28087;DHT22;15392;48.912;8.380;2023-04-01T16:56:23;15.80;53.00
28087;DHT22;15392;48.912;8.380;2023-04-01T17:04:57;15.80;53.30
28087;DHT22;15392;48.912;8.380;2023-04-01T17:08:06;15.80;52.90
28087;DHT22;15392;48.912;8.380;2023-04-01T17:11:04;15.70;53.30
28087;DHT22;15392;48.912;8.380;2023-04-01T17:27:59;15.60;53.20
28087;DHT22;15392;48.912;8.380;2023-04-01T17:30:38;15.50;52.60
28087;DHT22;15392;48.912;8.380;2023-04-01T17:33:23;15.50;52.60
28087;DHT22;15392;48.912;8.380;2023-04-01T17:39:32;15.50;52.80
28087;DHT22;15392;48.912;8.380;2023-04-01T17:50:52;15.50;52.50
28087;DHT22;15392;48.912;8.380;2023-04-01T17:53:56;15.50;52.60
28087;DHT22;15392;48.912;8.380;2023-04-01T17:57:00;15.50;52.30
28087;DHT22;15392;48.912;8.380;2023-04-01T17:59:48;15.50;52.40
28087;DHT22;15392;48.912;8.380;2023-04-01T18:02:52;15.50;52.50
28087;DHT22;15392;48.912;8.380;2023-04-01T18:14:23;15.40;52.10
28087;DHT22;15392;48.912;8.380;2023-04-01T18:17:27;15.40;52.10
28087;DHT22;15392;48.912;8.380;2023-04-01T18:26:01;15.30;52.00
28087;DHT22;15392;48.912;8.380;2023-04-01T18:28:38;15.30;52.00
28087;DHT22;15392;48.912;8.380;2023-04-01T18:31:41;15.30;52.00
28087;DHT22;15392;48.912;8.380;2023-04-01T18:36:53;15.30;52.30
28087;DHT22;15392;48.912;8.380;2023-04-01T18:39:40;15.20;52.00
28087;DHT22;15392;48.912;8.380;2023-04-01T18:45:56;15.20;52.10
28087;DHT22;15392;48.912;8.380;2023-04-01T18:51:11;15.20;52.30
28087;DHT22;15392;48.912;8.380;2023-04-01T18:54:00;15.20;51.90
28087;DHT22;15392;48.912;8.380;2023-04-01T18:56:32;15.20;52.30
28087;DHT22;15392;48.912;8.380;2023-04-01T18:59:22;15.10;51.90
28087;DHT22;15392;48.912;8.380;2023-04-01T19:02:25;15.20;52.40
28087;DHT22;15392;48.912;8.380;2023-04-01T19:05:16;15.20;52.30
28087;DHT22;15392;48.912;8.380;2023-04-01T19:07:52;15.10;52.20
28087;DHT22;15392;48.912;8.380;2023-04-01T19:19:27;15.10;52.10
28087;DHT22;15392;48.912;8.380;2023-04-01T19:28:28;15.20;52.60
28087;DHT22;15392;48.912;8.380;2023-04-01T19:31:27;15.20;52.30
28087;DHT22;15392;48.912;8.380;2023-04-01T19:34:29;15.20;52.10
28087;DHT22;15392;48.912;8.380;2023-04-01T19:40:29;15.20;52.10
28087;DHT22;15392;48.912;8.380;2023-04-01T19:46:33;15.20;52.00
28087;DHT22;15392;48.912;8.380;2023-04-01T19:52:09;15.20;52.20
28087;DHT22;15392;48.912;8.380;2023-04-01T19:58:10;15.30;52.30
28087;DHT22;15392;48.912;8.380;2023-04-01T20:01:17;15.30;51.90
28087;DHT22;15392;48.912;8.380;2023-04-01T20:06:12;15.30;51.90
28087;DHT22;15392;48.912;8.380;2023-04-01T20:08:58;15.30;52.00
28087;DHT22;15392;48.912;8.380;2023-04-01T20:14:48;15.30;52.10
28087;DHT22;15392;48.912;8.380;2023-04-01T20:17:39;15.30;52.20
28087;DHT22;15392;48.912;8.380;2023-04-01T20:28:05;15.30;52.10
28087;DHT22;15392;48.912;8.380;2023-04-01T20:36:26;15.30;52.10
28087;DHT22;15392;48.912;8.380;2023-04-01T20:39:14;15.30;52.30
28087;DHT22;15392;48.912;8.380;2023-04-01T20:44:36;15.20;51.80
28087;DHT22;15392;48.912;8.380;2023-04-01T20:47:30;15.20;51.90
28087;DHT22;15392;48.912;8.380;2023-04-01T20:50:57;15.20;52.00
28087;DHT22;15392;48.912;8.380;2023-04-01T20:53:42;15.20;52.10
28087;DHT22;15392;48.912;8.380;2023-04-01T20:56:42;15.20;51.80
28087;DHT22;15392;48.912;8.380;2023-04-01T20:59:40;15.20;52.10
28087;DHT22;15392;48.912;8.380;2023-04-01T21:05:45;15.20;51.70
28087;DHT22;15392;48.912;8.380;2023-04-01T21:15:41;15.30;51.60
28087;DHT22;15392;48.912;8.380;2023-04-01T21:21:38;15.30;51.50
28087;DHT22;15392;48.912;8.380;2023-04-01T21:26:57;15.20;51.20
28087;DHT22;15392;48.912;8.380;2023-04-01T21:32:53;15.20;51.40
28087;DHT22;15392;48.912;8.380;2023-04-01T21:36:02;15.20;51.20
28087;DHT22;15392;48.912;8.380;2023-04-01T21:42:06;15.30;51.40
28087;DHT22;15392;48.912;8.380;2023-04-01T21:50:47;15.20;51.30
28087;DHT22;15392;48.912;8.380;2023-04-01T21:53:51;15.20;51.00
28087;DHT22;15392;48.912;8.380;2023-04-01T22:06:00;15.30;51.20
28087;DHT22;15392;48.912;8.380;2023-04-01T22:12:10;15.30;51.00
28087;DHT22;15392;48.912;8.380;2023-04-01T22:14:42;15.30;51.10
28087;DHT22;15392;48.912;8.380;2023-04-01T22:17:41;15.30;51.20
28087;DHT22;15392;48.912;8.380;2023-04-01T22:20:40;15.30;51.00
28087;DHT22;15392;48.912;8.380;2023-04-01T22:24:15;15.30;50.90
28087;DHT22;15392;48.912;8.380;2023-04-01T22:26:33;15.30;51.00
28087;DHT22;15392;48.912;8.380;2023-04-01T22:31:59;15.30;50.90
28087;DHT22;15392;48.912;8.380;2023-04-01T22:40:47;15.40;51.00
28087;DHT22;15392;48.912;8.380;2023-04-01T22:43:37;15.30;50.90
28087;DHT22;15392;48.912;8.380;2023-04-01T22:46:26;15.40;51.00
28087;DHT22;15392;48.912;8.380;2023-04-01T22:54:45;15.40;51.00
28087;DHT22;15392;48.912;8.380;2023-04-01T22:57:15;15.40;50.80
28087;DHT22;15392;48.912;8.380;2023-04-01T23:00:18;15.40;50.80
28087;DHT22;15392;48.912;8.380;2023-04-01T23:05:43;15.40;50.80
28087;DHT22;15392;48.912;8.380;2023-04-01T23:11:15;15.40;50.90
28087;DHT22;15392;48.912;8.380;2023-04-01T23:13:47;15.40;50.70
28087;DHT22;15392;48.912;8.380;2023-04-01T23:16:24;15.40;50.70
28087;DHT22;15392;48.912;8.380;2023-04-01T23:19:17;15.40;50.70
28087;DHT22;15392;48.912;8.380;2023-04-01T23:22:03;15.40;51.00
28087;DHT22;15392;48.912;8.380;2023-04-01T23:24:36;15.40;50.80
28087;DHT22;15392;48.912;8.380;2023-04-01T23:27:11;15.40;51.00
28087;DHT22;15392;48.912;8.380;2023-04-01T23:29:41;15.30;51.00
28087;DHT22;15392;48.912;8.380;2023-04-01T23:32:18;15.40;51.20
28087;DHT22;15392;48.912;8.380;2023-04-01T23:34:50;15.30;51.40
28087;DHT22;15392;48.912;8.380;2023-04-01T23:37:22;15.30;51.20
28087;DHT22;15392;48.912;8.380;2023-04-01T23:39:53;15.30;51.80
28087;DHT22;15392;48.912;8.380;2023-04-01T23:44:58;15.20;51.30
28087;DHT22;15392;48.912;8.380;2023-04-01T23:47:34;15.20;51.40
28087;DHT22;15392;48.912;8.380;2023-04-01T23:50:11;15.20;51.40
28087;DHT22;15392;48.912;8.380;2023-04-01T23:52:42;15.20;51.30
